sensor_id;sensor_type;location;lat;lon;timestamp;P1;durP1;ratioP1;P2;durP2;ratioP2
6862;SDS011;3470;48.738;9.616;2023-08-30T00:00:38;42.63;;;35.37;;
6862;SDS011;3470;48.738;9.616;2023-08-30T00:03:04;42.83;;;35.10;;
6862;SDS011;3470;48.738;9.616;2023-08-30T00:05:31;41.73;;;33.77;;
6862;SDS011;3470;48.738;9.616;2023-08-30T00:07:56;46.97;;;37.10;;
6862;SDS011;3470;48.738;9.616;2023-08-30T00:10:22;43.80;;;35.00;;
6862;SDS011;3470;48.738;9.616;2023-08-30T00:12:48;43.23;;;34.90;;
6862;SDS011;3470;48.738;9.616;2023-08-30T00:15:14;43.70;;;34.87;;
6862;SDS011;3470;48.738;9.616;2023-08-30T00:17:39;48.17;;;32.83;;
6862;SDS011;3470;48.738;9.616;2023-08-30T00:20:05;40.03;;;32.83;;
6862;SDS011;3470;48.738;9.616;2023-08-30T00:22:32;40.57;;;33.07;;
6862;SDS011;3470;48.738;9.616;2023-08-30T00:24:58;37.13;;;31.83;;
6862;SDS011;3470;48.738;9.616;2023-08-30T00:27:24;36.93;;;31.10;;
6862;SDS011;3470;48.738;9.616;2023-08-30T00:29:50;41.97;;;33.97;;
6862;SDS011;3470;48.738;9.616;2023-08-30T00:32:15;44.10;;;33.73;;
6862;SDS011;3470;48.738;9.616;2023-08-30T00:34:41;42.77;;;34.83;;
6862;SDS011;3470;48.738;9.616;2023-08-30T00:37:06;38.93;;;33.77;;
6862;SDS011;3470;48.738;9.616;2023-08-30T00:39:33;41.73;;;34.10;;
6862;SDS011;3470;48.738;9.616;2023-08-30T00:41:59;38.77;;;31.90;;
6862;SDS011;3470;48.738;9.616;2023-08-30T00:44:29;41.57;;;33.43;;
6862;SDS011;3470;48.738;9.616;2023-08-30T00:46:55;42.20;;;34.07;;
6862;SDS011;3470;48.738;9.616;2023-08-30T00:49:21;42.97;;;33.63;;
6862;SDS011;3470;48.738;9.616;2023-08-30T00:51:46;42.30;;;34.67;;
6862;SDS011;3470;48.738;9.616;2023-08-30T00:54:12;40.37;;;34.03;;
6862;SDS011;3470;48.738;9.616;2023-08-30T00:56:38;42.97;;;35.30;;
6862;SDS011;3470;48.738;9.616;2023-08-30T00:59:03;43.93;;;34.67;;
6862;SDS011;3470;48.738;9.616;2023-08-30T01:01:29;48.70;;;36.33;;
6862;SDS011;3470;48.738;9.616;2023-08-30T01:03:54;48.13;;;36.43;;
6862;SDS011;3470;48.738;9.616;2023-08-30T01:06:20;46.70;;;37.00;;
6862;SDS011;3470;48.738;9.616;2023-08-30T01:08:45;50.33;;;38.10;;
6862;SDS011;3470;48.738;9.616;2023-08-30T01:14:01;47.93;;;37.17;;
6862;SDS011;3470;48.738;9.616;2023-08-30T01:16:35;55.10;;;38.53;;
6862;SDS011;3470;48.738;9.616;2023-08-30T01:19:02;49.37;;;37.50;;
6862;SDS011;3470;48.738;9.616;2023-08-30T01:24:23;127.27;;;34.67;;
6862;SDS011;3470;48.738;9.616;2023-08-30T01:27:10;170.30;;;36.77;;
6862;SDS011;3470;48.738;9.616;2023-08-30T01:29:37;261.40;;;44.53;;
6862;SDS011;3470;48.738;9.616;2023-08-30T01:32:05;244.63;;;39.93;;
6862;SDS011;3470;48.738;9.616;2023-08-30T01:34:34;318.70;;;46.30;;
6862;SDS011;3470;48.738;9.616;2023-08-30T01:37:02;362.97;;;49.00;;
6862;SDS011;3470;48.738;9.616;2023-08-30T01:39:31;152.10;;;41.17;;
6862;SDS011;3470;48.738;9.616;2023-08-30T01:41:57;257.83;;;51.33;;
6862;SDS011;3470;48.738;9.616;2023-08-30T01:44:28;350.30;;;49.33;;
6862;SDS011;3470;48.738;9.616;2023-08-30T01:46:55;214.63;;;40.87;;
6862;SDS011;3470;48.738;9.616;2023-08-30T01:49:22;257.27;;;40.87;;
6862;SDS011;3470;48.738;9.616;2023-08-30T01:51:49;136.23;;;41.03;;
6862;SDS011;3470;48.738;9.616;2023-08-30T01:54:17;215.23;;;46.13;;
6862;SDS011;3470;48.738;9.616;2023-08-30T01:56:44;182.23;;;44.77;;
6862;SDS011;3470;48.738;9.616;2023-08-30T01:59:10;159.73;;;43.77;;
6862;SDS011;3470;48.738;9.616;2023-08-30T02:01:36;275.57;;;46.57;;
6862;SDS011;3470;48.738;9.616;2023-08-30T02:04:01;269.23;;;42.70;;
6862;SDS011;3470;48.738;9.616;2023-08-30T02:06:30;187.67;;;41.27;;
6862;SDS011;3470;48.738;9.616;2023-08-30T02:09:19;154.83;;;42.47;;
6862;SDS011;3470;48.738;9.616;2023-08-30T02:11:51;120.50;;;41.93;;
6862;SDS011;3470;48.738;9.616;2023-08-30T02:14:19;142.70;;;45.13;;
6862;SDS011;3470;48.738;9.616;2023-08-30T02:16:46;159.80;;;48.10;;
6862;SDS011;3470;48.738;9.616;2023-08-30T02:19:13;160.07;;;49.73;;
6862;SDS011;3470;48.738;9.616;2023-08-30T02:21:45;165.37;;;50.73;;
6862;SDS011;3470;48.738;9.616;2023-08-30T02:24:11;119.87;;;43.70;;
6862;SDS011;3470;48.738;9.616;2023-08-30T02:26:37;109.73;;;42.27;;
6862;SDS011;3470;48.738;9.616;2023-08-30T02:29:03;170.27;;;53.83;;
6862;SDS011;3470;48.738;9.616;2023-08-30T02:31:29;102.77;;;40.67;;
6862;SDS011;3470;48.738;9.616;2023-08-30T02:33:54;92.00;;;43.00;;
6862;SDS011;3470;48.738;9.616;2023-08-30T02:36:20;68.70;;;38.40;;
6862;SDS011;3470;48.738;9.616;2023-08-30T02:38:45;101.20;;;40.50;;
6862;SDS011;3470;48.738;9.616;2023-08-30T02:41:11;127.57;;;43.60;;
6862;SDS011;3470;48.738;9.616;2023-08-30T02:43:37;104.80;;;44.30;;
6862;SDS011;3470;48.738;9.616;2023-08-30T02:46:03;72.60;;;37.43;;
6862;SDS011;3470;48.738;9.616;2023-08-30T02:48:30;75.50;;;38.00;;
6862;SDS011;3470;48.738;9.616;2023-08-30T02:50:56;77.47;;;37.83;;
6862;SDS011;3470;48.738;9.616;2023-08-30T02:53:22;70.67;;;38.13;;
6862;SDS011;3470;48.738;9.616;2023-08-30T02:55:48;90.13;;;35.00;;
6862;SDS011;3470;48.738;9.616;2023-08-30T02:58:14;55.43;;;30.23;;
6862;SDS011;3470;48.738;9.616;2023-08-30T03:00:39;79.00;;;35.97;;
6862;SDS011;3470;48.738;9.616;2023-08-30T03:03:05;56.93;;;32.73;;
6862;SDS011;3470;48.738;9.616;2023-08-30T03:05:30;53.50;;;31.57;;
6862;SDS011;3470;48.738;9.616;2023-08-30T03:07:56;65.60;;;34.83;;
6862;SDS011;3470;48.738;9.616;2023-08-30T03:10:22;51.07;;;30.97;;
6862;SDS011;3470;48.738;9.616;2023-08-30T03:12:47;57.50;;;34.73;;
6862;SDS011;3470;48.738;9.616;2023-08-30T03:15:13;49.70;;;31.40;;
6862;SDS011;3470;48.738;9.616;2023-08-30T03:17:39;63.53;;;30.20;;
6862;SDS011;3470;48.738;9.616;2023-08-30T03:20:04;74.50;;;29.60;;
6862;SDS011;3470;48.738;9.616;2023-08-30T03:22:31;165.50;;;38.20;;
6862;SDS011;3470;48.738;9.616;2023-08-30T03:24:57;84.63;;;34.97;;
6862;SDS011;3470;48.738;9.616;2023-08-30T03:27:22;289.93;;;45.90;;
6862;SDS011;3470;48.738;9.616;2023-08-30T03:29:48;492.37;;;62.20;;
6862;SDS011;3470;48.738;9.616;2023-08-30T03:32:15;219.70;;;46.97;;
6862;SDS011;3470;48.738;9.616;2023-08-30T03:34:46;327.00;;;53.00;;
6862;SDS011;3470;48.738;9.616;2023-08-30T03:37:15;274.23;;;49.63;;
6862;SDS011;3470;48.738;9.616;2023-08-30T03:39:41;258.23;;;54.43;;
6862;SDS011;3470;48.738;9.616;2023-08-30T03:42:07;252.23;;;53.70;;
6862;SDS011;3470;48.738;9.616;2023-08-30T03:44:33;226.20;;;48.60;;
6862;SDS011;3470;48.738;9.616;2023-08-30T03:46:58;227.77;;;50.40;;
6862;SDS011;3470;48.738;9.616;2023-08-30T03:49:24;168.67;;;48.20;;
6862;SDS011;3470;48.738;9.616;2023-08-30T03:51:49;194.80;;;49.57;;
6862;SDS011;3470;48.738;9.616;2023-08-30T03:54:15;124.50;;;46.90;;
6862;SDS011;3470;48.738;9.616;2023-08-30T03:56:43;155.60;;;52.50;;
6862;SDS011;3470;48.738;9.616;2023-08-30T03:59:09;182.33;;;52.53;;
6862;SDS011;3470;48.738;9.616;2023-08-30T04:01:36;469.33;;;75.47;;
6862;SDS011;3470;48.738;9.616;2023-08-30T04:04:02;407.33;;;69.37;;
6862;SDS011;3470;48.738;9.616;2023-08-30T04:06:27;353.77;;;58.03;;
6862;SDS011;3470;48.738;9.616;2023-08-30T04:08:53;302.73;;;57.93;;
6862;SDS011;3470;48.738;9.616;2023-08-30T04:11:18;187.93;;;50.87;;
6862;SDS011;3470;48.738;9.616;2023-08-30T04:13:44;209.93;;;61.40;;
6862;SDS011;3470;48.738;9.616;2023-08-30T04:16:10;163.47;;;54.73;;
6862;SDS011;3470;48.738;9.616;2023-08-30T04:18:35;119.23;;;49.47;;
6862;SDS011;3470;48.738;9.616;2023-08-30T04:21:01;176.00;;;55.10;;
6862;SDS011;3470;48.738;9.616;2023-08-30T04:23:27;230.02;;;57.15;;
6862;SDS011;3470;48.738;9.616;2023-08-30T04:25:54;96.97;;;49.67;;
6862;SDS011;3470;48.738;9.616;2023-08-30T04:28:20;130.30;;;52.20;;
6862;SDS011;3470;48.738;9.616;2023-08-30T04:30:46;132.63;;;51.03;;
6862;SDS011;3470;48.738;9.616;2023-08-30T04:33:11;348.50;;;70.07;;
6862;SDS011;3470;48.738;9.616;2023-08-30T04:35:37;277.50;;;53.27;;
6862;SDS011;3470;48.738;9.616;2023-08-30T04:38:03;212.90;;;50.37;;
6862;SDS011;3470;48.738;9.616;2023-08-30T04:40:29;241.80;;;56.73;;
6862;SDS011;3470;48.738;9.616;2023-08-30T04:42:55;197.13;;;55.10;;
6862;SDS011;3470;48.738;9.616;2023-08-30T04:45:22;148.17;;;54.60;;
6862;SDS011;3470;48.738;9.616;2023-08-30T04:47:48;208.90;;;58.83;;
6862;SDS011;3470;48.738;9.616;2023-08-30T04:50:14;283.60;;;71.40;;
6862;SDS011;3470;48.738;9.616;2023-08-30T04:52:39;166.60;;;53.47;;
6862;SDS011;3470;48.738;9.616;2023-08-30T04:55:05;350.20;;;77.37;;
6862;SDS011;3470;48.738;9.616;2023-08-30T04:57:31;200.47;;;59.03;;
6862;SDS011;3470;48.738;9.616;2023-08-30T04:59:57;240.73;;;64.43;;
6862;SDS011;3470;48.738;9.616;2023-08-30T05:02:23;294.47;;;74.73;;
6862;SDS011;3470;48.738;9.616;2023-08-30T05:04:48;159.37;;;55.73;;
6862;SDS011;3470;48.738;9.616;2023-08-30T05:07:14;197.30;;;63.90;;
6862;SDS011;3470;48.738;9.616;2023-08-30T05:09:39;186.40;;;61.60;;
6862;SDS011;3470;48.738;9.616;2023-08-30T05:12:08;200.93;;;61.97;;
6862;SDS011;3470;48.738;9.616;2023-08-30T05:14:34;122.25;;;52.38;;
6862;SDS011;3470;48.738;9.616;2023-08-30T05:16:59;140.27;;;58.17;;
6862;SDS011;3470;48.738;9.616;2023-08-30T05:19:25;148.57;;;56.80;;
6862;SDS011;3470;48.738;9.616;2023-08-30T05:21:50;147.53;;;55.33;;
6862;SDS011;3470;48.738;9.616;2023-08-30T05:24:19;86.70;;;48.10;;
6862;SDS011;3470;48.738;9.616;2023-08-30T05:26:45;92.95;;;47.55;;
6862;SDS011;3470;48.738;9.616;2023-08-30T05:29:11;104.78;;;49.22;;
6862;SDS011;3470;48.738;9.616;2023-08-30T05:31:38;111.27;;;50.70;;
6862;SDS011;3470;48.738;9.616;2023-08-30T05:34:04;142.30;;;55.37;;
6862;SDS011;3470;48.738;9.616;2023-08-30T05:36:29;159.90;;;61.93;;
6862;SDS011;3470;48.738;9.616;2023-08-30T05:38:55;96.70;;;47.35;;
6862;SDS011;3470;48.738;9.616;2023-08-30T05:41:20;79.90;;;43.77;;
6862;SDS011;3470;48.738;9.616;2023-08-30T05:43:46;80.63;;;44.50;;
6862;SDS011;3470;48.738;9.616;2023-08-30T05:46:11;207.17;;;54.90;;
6862;SDS011;3470;48.738;9.616;2023-08-30T05:48:39;142.35;;;51.00;;
6862;SDS011;3470;48.738;9.616;2023-08-30T05:51:05;186.43;;;54.22;;
6862;SDS011;3470;48.738;9.616;2023-08-30T05:53:31;111.18;;;53.05;;
6862;SDS011;3470;48.738;9.616;2023-08-30T05:55:56;122.68;;;54.22;;
6862;SDS011;3470;48.738;9.616;2023-08-30T05:58:22;157.05;;;63.13;;
6862;SDS011;3470;48.738;9.616;2023-08-30T06:00:47;82.97;;;49.80;;
6862;SDS011;3470;48.738;9.616;2023-08-30T06:03:13;134.77;;;58.42;;
6862;SDS011;3470;48.738;9.616;2023-08-30T06:05:38;86.28;;;49.13;;
6862;SDS011;3470;48.738;9.616;2023-08-30T06:08:04;101.20;;;52.58;;
6862;SDS011;3470;48.738;9.616;2023-08-30T06:10:30;105.78;;;52.80;;
6862;SDS011;3470;48.738;9.616;2023-08-30T06:12:55;81.43;;;48.88;;
6862;SDS011;3470;48.738;9.616;2023-08-30T06:15:21;98.53;;;52.70;;
6862;SDS011;3470;48.738;9.616;2023-08-30T06:17:46;97.97;;;53.58;;
6862;SDS011;3470;48.738;9.616;2023-08-30T06:20:12;101.10;;;52.75;;
6862;SDS011;3470;48.738;9.616;2023-08-30T06:22:38;69.40;;;46.97;;
6862;SDS011;3470;48.738;9.616;2023-08-30T06:25:04;65.18;;;44.55;;
6862;SDS011;3470;48.738;9.616;2023-08-30T06:27:31;49.45;;;39.28;;
6862;SDS011;3470;48.738;9.616;2023-08-30T06:29:57;45.67;;;36.40;;
6862;SDS011;3470;48.738;9.616;2023-08-30T06:32:23;40.55;;;34.55;;
6862;SDS011;3470;48.738;9.616;2023-08-30T06:34:48;36.35;;;31.92;;
6862;SDS011;3470;48.738;9.616;2023-08-30T06:37:14;33.95;;;30.30;;
6862;SDS011;3470;48.738;9.616;2023-08-30T06:39:40;29.65;;;26.80;;
6862;SDS011;3470;48.738;9.616;2023-08-30T06:42:05;30.98;;;27.63;;
6862;SDS011;3470;48.738;9.616;2023-08-30T06:44:31;29.38;;;26.23;;
6862;SDS011;3470;48.738;9.616;2023-08-30T06:46:57;25.75;;;23.33;;
6862;SDS011;3470;48.738;9.616;2023-08-30T06:49:23;26.15;;;23.60;;
6862;SDS011;3470;48.738;9.616;2023-08-30T06:51:49;21.33;;;19.52;;
6862;SDS011;3470;48.738;9.616;2023-08-30T06:54:14;20.98;;;19.00;;
6862;SDS011;3470;48.738;9.616;2023-08-30T06:56:40;18.58;;;16.95;;
6862;SDS011;3470;48.738;9.616;2023-08-30T06:59:05;18.33;;;16.63;;
6862;SDS011;3470;48.738;9.616;2023-08-30T07:01:31;17.35;;;15.93;;
6862;SDS011;3470;48.738;9.616;2023-08-30T07:03:56;14.70;;;13.50;;
6862;SDS011;3470;48.738;9.616;2023-08-30T07:06:22;14.43;;;12.95;;
6862;SDS011;3470;48.738;9.616;2023-08-30T07:08:48;13.35;;;12.15;;
6862;SDS011;3470;48.738;9.616;2023-08-30T07:11:13;12.85;;;11.75;;
6862;SDS011;3470;48.738;9.616;2023-08-30T07:13:39;13.25;;;12.15;;
6862;SDS011;3470;48.738;9.616;2023-08-30T07:16:05;12.48;;;11.43;;
6862;SDS011;3470;48.738;9.616;2023-08-30T07:18:30;13.82;;;12.73;;
6862;SDS011;3470;48.738;9.616;2023-08-30T07:20:56;12.13;;;11.00;;
6862;SDS011;3470;48.738;9.616;2023-08-30T07:23:22;12.00;;;10.90;;
6862;SDS011;3470;48.738;9.616;2023-08-30T07:25:47;10.85;;;9.98;;
6862;SDS011;3470;48.738;9.616;2023-08-30T07:28:13;11.32;;;10.40;;
6862;SDS011;3470;48.738;9.616;2023-08-30T07:30:38;11.05;;;10.00;;
6862;SDS011;3470;48.738;9.616;2023-08-30T07:33:04;11.07;;;10.18;;
6862;SDS011;3470;48.738;9.616;2023-08-30T07:35:30;10.77;;;9.68;;
6862;SDS011;3470;48.738;9.616;2023-08-30T07:37:57;10.45;;;9.65;;
6862;SDS011;3470;48.738;9.616;2023-08-30T07:40:23;11.32;;;10.38;;
6862;SDS011;3470;48.738;9.616;2023-08-30T07:42:53;10.25;;;9.35;;
6862;SDS011;3470;48.738;9.616;2023-08-30T07:45:19;9.88;;;8.88;;
6862;SDS011;3470;48.738;9.616;2023-08-30T07:47:44;10.35;;;9.55;;
6862;SDS011;3470;48.738;9.616;2023-08-30T07:50:10;10.43;;;9.63;;
6862;SDS011;3470;48.738;9.616;2023-08-30T07:52:35;9.98;;;8.98;;
6862;SDS011;3470;48.738;9.616;2023-08-30T07:55:01;10.52;;;9.55;;
6862;SDS011;3470;48.738;9.616;2023-08-30T07:57:27;9.98;;;9.10;;
6862;SDS011;3470;48.738;9.616;2023-08-30T07:59:52;10.45;;;9.35;;
6862;SDS011;3470;48.738;9.616;2023-08-30T08:02:18;9.02;;;8.32;;
6862;SDS011;3470;48.738;9.616;2023-08-30T08:04:43;8.98;;;8.10;;
6862;SDS011;3470;48.738;9.616;2023-08-30T08:07:09;8.65;;;7.82;;
6862;SDS011;3470;48.738;9.616;2023-08-30T08:09:35;8.80;;;8.07;;
6862;SDS011;3470;48.738;9.616;2023-08-30T08:12:00;8.40;;;7.60;;
6862;SDS011;3470;48.738;9.616;2023-08-30T08:14:26;7.72;;;6.95;;
6862;SDS011;3470;48.738;9.616;2023-08-30T08:16:51;7.82;;;7.18;;
6862;SDS011;3470;48.738;9.616;2023-08-30T08:19:17;7.28;;;6.68;;
6862;SDS011;3470;48.738;9.616;2023-08-30T08:21:43;7.70;;;7.10;;
6862;SDS011;3470;48.738;9.616;2023-08-30T08:24:08;6.85;;;6.35;;
6862;SDS011;3470;48.738;9.616;2023-08-30T08:26:34;6.85;;;6.32;;
6862;SDS011;3470;48.738;9.616;2023-08-30T08:28:59;6.90;;;6.30;;
6862;SDS011;3470;48.738;9.616;2023-08-30T08:31:25;6.05;;;5.55;;
6862;SDS011;3470;48.738;9.616;2023-08-30T08:36:35;5.82;;;5.32;;
6862;SDS011;3470;48.738;9.616;2023-08-30T08:39:01;5.45;;;4.97;;
6862;SDS011;3470;48.738;9.616;2023-08-30T08:41:30;6.05;;;5.47;;
6862;SDS011;3470;48.738;9.616;2023-08-30T08:44:03;6.47;;;5.93;;
6862;SDS011;3470;48.738;9.616;2023-08-30T08:46:31;6.50;;;6.00;;
6862;SDS011;3470;48.738;9.616;2023-08-30T08:48:57;6.35;;;5.82;;
6862;SDS011;3470;48.738;9.616;2023-08-30T08:51:26;6.40;;;5.85;;
6862;SDS011;3470;48.738;9.616;2023-08-30T08:53:53;6.22;;;5.72;;
6862;SDS011;3470;48.738;9.616;2023-08-30T08:56:23;6.80;;;6.20;;
6862;SDS011;3470;48.738;9.616;2023-08-30T08:58:49;7.10;;;6.45;;
6862;SDS011;3470;48.738;9.616;2023-08-30T09:01:15;6.65;;;6.05;;
6862;SDS011;3470;48.738;9.616;2023-08-30T09:03:41;6.70;;;6.10;;
6862;SDS011;3470;48.738;9.616;2023-08-30T09:06:07;6.55;;;5.95;;
6862;SDS011;3470;48.738;9.616;2023-08-30T09:08:33;6.57;;;5.95;;
6862;SDS011;3470;48.738;9.616;2023-08-30T09:10:59;6.00;;;5.55;;
6862;SDS011;3470;48.738;9.616;2023-08-30T09:13:25;6.70;;;6.20;;
6862;SDS011;3470;48.738;9.616;2023-08-30T09:15:51;6.80;;;6.28;;
6862;SDS011;3470;48.738;9.616;2023-08-30T09:18:17;6.97;;;6.28;;
6862;SDS011;3470;48.738;9.616;2023-08-30T09:20:43;6.75;;;6.20;;
6862;SDS011;3470;48.738;9.616;2023-08-30T09:23:18;7.05;;;6.38;;
6862;SDS011;3470;48.738;9.616;2023-08-30T09:25:46;7.03;;;6.45;;
6862;SDS011;3470;48.738;9.616;2023-08-30T09:28:12;6.18;;;5.57;;
6862;SDS011;3470;48.738;9.616;2023-08-30T09:30:38;6.53;;;5.93;;
6862;SDS011;3470;48.738;9.616;2023-08-30T09:33:04;6.63;;;6.03;;
6862;SDS011;3470;48.738;9.616;2023-08-30T09:35:31;6.47;;;5.80;;
6862;SDS011;3470;48.738;9.616;2023-08-30T09:37:57;6.60;;;6.10;;
6862;SDS011;3470;48.738;9.616;2023-08-30T09:40:22;6.82;;;6.15;;
6862;SDS011;3470;48.738;9.616;2023-08-30T09:42:48;6.63;;;6.03;;
6862;SDS011;3470;48.738;9.616;2023-08-30T09:45:17;6.28;;;5.75;;
6862;SDS011;3470;48.738;9.616;2023-08-30T09:47:48;6.82;;;6.22;;
6862;SDS011;3470;48.738;9.616;2023-08-30T09:50:16;5.82;;;5.00;;
6862;SDS011;3470;48.738;9.616;2023-08-30T09:52:43;8.25;;;5.45;;
6862;SDS011;3470;48.738;9.616;2023-08-30T09:55:11;6.50;;;5.00;;
6862;SDS011;3470;48.738;9.616;2023-08-30T09:57:37;5.20;;;4.80;;
6862;SDS011;3470;48.738;9.616;2023-08-30T10:00:03;5.72;;;4.80;;
6862;SDS011;3470;48.738;9.616;2023-08-30T10:02:30;4.60;;;4.20;;
6862;SDS011;3470;48.738;9.616;2023-08-30T10:04:57;4.57;;;4.18;;
6862;SDS011;3470;48.738;9.616;2023-08-30T10:07:23;5.10;;;4.70;;
6862;SDS011;3470;48.738;9.616;2023-08-30T10:09:50;4.00;;;3.70;;
6862;SDS011;3470;48.738;9.616;2023-08-30T10:12:20;5.65;;;4.20;;
6862;SDS011;3470;48.738;9.616;2023-08-30T10:14:47;4.07;;;3.67;;
6862;SDS011;3470;48.738;9.616;2023-08-30T10:17:13;4.03;;;3.70;;
6862;SDS011;3470;48.738;9.616;2023-08-30T10:19:42;4.13;;;3.83;;
6862;SDS011;3470;48.738;9.616;2023-08-30T10:22:10;4.55;;;3.22;;
6862;SDS011;3470;48.738;9.616;2023-08-30T10:24:44;3.35;;;3.05;;
6862;SDS011;3470;48.738;9.616;2023-08-30T10:27:13;4.65;;;3.80;;
6862;SDS011;3470;48.738;9.616;2023-08-30T10:29:40;3.40;;;3.10;;
6862;SDS011;3470;48.738;9.616;2023-08-30T10:32:08;3.20;;;2.95;;
6862;SDS011;3470;48.738;9.616;2023-08-30T10:34:36;3.33;;;3.03;;
6862;SDS011;3470;48.738;9.616;2023-08-30T10:37:03;3.30;;;3.00;;
6862;SDS011;3470;48.738;9.616;2023-08-30T10:39:35;4.15;;;3.17;;
6862;SDS011;3470;48.738;9.616;2023-08-30T10:44:57;3.25;;;2.95;;
6862;SDS011;3470;48.738;9.616;2023-08-30T10:47:26;3.08;;;2.83;;
6862;SDS011;3470;48.738;9.616;2023-08-30T10:49:57;3.95;;;3.42;;
6862;SDS011;3470;48.738;9.616;2023-08-30T10:52:25;3.50;;;2.97;;
6862;SDS011;3470;48.738;9.616;2023-08-30T10:54:51;3.38;;;2.92;;
6862;SDS011;3470;48.738;9.616;2023-08-30T10:57:20;2.97;;;2.60;;
6862;SDS011;3470;48.738;9.616;2023-08-30T11:02:38;2.22;;;2.13;;
6862;SDS011;3470;48.738;9.616;2023-08-30T11:05:08;2.53;;;2.33;;
6862;SDS011;3470;48.738;9.616;2023-08-30T11:07:34;2.85;;;2.28;;
6862;SDS011;3470;48.738;9.616;2023-08-30T11:10:00;3.05;;;2.17;;
6862;SDS011;3470;48.738;9.616;2023-08-30T11:12:25;3.08;;;2.13;;
6862;SDS011;3470;48.738;9.616;2023-08-30T11:14:52;4.22;;;2.55;;
6862;SDS011;3470;48.738;9.616;2023-08-30T11:17:18;2.30;;;2.10;;
6862;SDS011;3470;48.738;9.616;2023-08-30T11:19:44;2.15;;;1.95;;
6862;SDS011;3470;48.738;9.616;2023-08-30T11:22:12;5.57;;;2.25;;
6862;SDS011;3470;48.738;9.616;2023-08-30T11:24:38;4.97;;;2.40;;
6862;SDS011;3470;48.738;9.616;2023-08-30T11:27:04;2.30;;;2.10;;
6862;SDS011;3470;48.738;9.616;2023-08-30T11:29:31;2.78;;;2.35;;
6862;SDS011;3470;48.738;9.616;2023-08-30T11:31:57;3.00;;;2.67;;
6862;SDS011;3470;48.738;9.616;2023-08-30T11:34:22;2.10;;;1.90;;
6862;SDS011;3470;48.738;9.616;2023-08-30T11:36:48;3.17;;;2.30;;
6862;SDS011;3470;48.738;9.616;2023-08-30T11:39:15;1.90;;;1.70;;
6862;SDS011;3470;48.738;9.616;2023-08-30T11:41:41;3.42;;;2.08;;
6862;SDS011;3470;48.738;9.616;2023-08-30T11:44:08;2.45;;;1.80;;
6862;SDS011;3470;48.738;9.616;2023-08-30T11:46:34;2.65;;;2.00;;
6862;SDS011;3470;48.738;9.616;2023-08-30T11:48:59;2.78;;;2.20;;
6862;SDS011;3470;48.738;9.616;2023-08-30T11:51:25;2.72;;;1.80;;
6862;SDS011;3470;48.738;9.616;2023-08-30T11:53:51;1.90;;;1.80;;
6862;SDS011;3470;48.738;9.616;2023-08-30T11:56:19;2.30;;;2.00;;
6862;SDS011;3470;48.738;9.616;2023-08-30T11:58:45;2.58;;;2.38;;
6862;SDS011;3470;48.738;9.616;2023-08-30T12:01:11;2.85;;;2.50;;
6862;SDS011;3470;48.738;9.616;2023-08-30T12:03:37;2.72;;;2.00;;
6862;SDS011;3470;48.738;9.616;2023-08-30T12:06:08;2.20;;;2.00;;
6862;SDS011;3470;48.738;9.616;2023-08-30T12:08:37;2.25;;;2.10;;
6862;SDS011;3470;48.738;9.616;2023-08-30T12:11:03;2.70;;;1.75;;
6862;SDS011;3470;48.738;9.616;2023-08-30T12:13:30;2.20;;;1.75;;
6862;SDS011;3470;48.738;9.616;2023-08-30T12:15:58;3.15;;;2.05;;
6862;SDS011;3470;48.738;9.616;2023-08-30T12:18:25;2.28;;;1.80;;
6862;SDS011;3470;48.738;9.616;2023-08-30T16:56:46;2.90;;;2.70;;
6862;SDS011;3470;48.738;9.616;2023-08-30T16:59:12;2.50;;;2.30;;
6862;SDS011;3470;48.738;9.616;2023-08-30T17:01:38;2.47;;;2.28;;
6862;SDS011;3470;48.738;9.616;2023-08-30T17:04:05;2.47;;;2.28;;
6862;SDS011;3470;48.738;9.616;2023-08-30T17:06:30;2.63;;;2.42;;
6862;SDS011;3470;48.738;9.616;2023-08-30T17:08:56;4.03;;;2.20;;
6862;SDS011;3470;48.738;9.616;2023-08-30T17:11:22;2.47;;;2.15;;
6862;SDS011;3470;48.738;9.616;2023-08-30T17:13:47;2.45;;;2.25;;
6862;SDS011;3470;48.738;9.616;2023-08-30T17:16:13;2.92;;;2.45;;
6862;SDS011;3470;48.738;9.616;2023-08-30T17:18:40;2.63;;;2.42;;
6862;SDS011;3470;48.738;9.616;2023-08-30T19:09:57;6.72;;;6.03;;
6862;SDS011;3470;48.738;9.616;2023-08-30T19:12:22;7.90;;;7.20;;
6862;SDS011;3470;48.738;9.616;2023-08-30T19:14:48;13.73;;;11.18;;
6862;SDS011;3470;48.738;9.616;2023-08-30T19:17:13;10.63;;;9.63;;
6862;SDS011;3470;48.738;9.616;2023-08-30T19:19:39;25.67;;;23.65;;
6862;SDS011;3470;48.738;9.616;2023-08-30T19:22:05;9.63;;;8.73;;
6862;SDS011;3470;48.738;9.616;2023-08-30T19:24:30;13.55;;;12.55;;
6862;SDS011;3470;48.738;9.616;2023-08-30T19:27:01;8.88;;;8.07;;
6862;SDS011;3470;48.738;9.616;2023-08-30T19:29:28;10.73;;;9.70;;
6862;SDS011;3470;48.738;9.616;2023-08-30T19:31:54;8.30;;;7.60;;
6862;SDS011;3470;48.738;9.616;2023-08-30T19:34:19;8.98;;;7.78;;
6862;SDS011;3470;48.738;9.616;2023-08-30T19:36:46;23.40;;;21.55;;
6862;SDS011;3470;48.738;9.616;2023-08-30T19:39:11;9.38;;;8.52;;
6862;SDS011;3470;48.738;9.616;2023-08-30T19:41:38;10.63;;;8.50;;
6862;SDS011;3470;48.738;9.616;2023-08-30T19:44:04;8.48;;;7.68;;
6862;SDS011;3470;48.738;9.616;2023-08-30T19:46:30;8.95;;;7.93;;
6862;SDS011;3470;48.738;9.616;2023-08-30T19:48:55;8.93;;;8.13;;
6862;SDS011;3470;48.738;9.616;2023-08-30T19:51:21;8.35;;;7.55;;
6862;SDS011;3470;48.738;9.616;2023-08-30T19:53:49;7.50;;;6.75;;
6862;SDS011;3470;48.738;9.616;2023-08-30T19:56:15;6.53;;;6.03;;
6862;SDS011;3470;48.738;9.616;2023-08-30T19:58:41;5.38;;;4.95;;
6862;SDS011;3470;48.738;9.616;2023-08-30T20:01:07;5.22;;;4.82;;
6862;SDS011;3470;48.738;9.616;2023-08-30T20:03:33;4.05;;;3.72;;
6862;SDS011;3470;48.738;9.616;2023-08-30T20:05:59;4.82;;;4.10;;
6862;SDS011;3470;48.738;9.616;2023-08-30T20:08:25;4.40;;;4.07;;
6862;SDS011;3470;48.738;9.616;2023-08-30T20:10:50;4.57;;;4.17;;
6862;SDS011;3470;48.738;9.616;2023-08-30T20:13:17;6.35;;;3.42;;
6862;SDS011;3470;48.738;9.616;2023-08-30T20:15:42;3.80;;;3.50;;
6862;SDS011;3470;48.738;9.616;2023-08-30T20:18:10;3.60;;;3.30;;
6862;SDS011;3470;48.738;9.616;2023-08-30T20:20:36;4.40;;;3.30;;
6862;SDS011;3470;48.738;9.616;2023-08-30T20:23:03;3.63;;;3.20;;
6862;SDS011;3470;48.738;9.616;2023-08-30T20:25:29;3.53;;;3.22;;
6862;SDS011;3470;48.738;9.616;2023-08-30T20:27:55;4.68;;;3.60;;
6862;SDS011;3470;48.738;9.616;2023-08-30T20:30:23;4.00;;;3.45;;
6862;SDS011;3470;48.738;9.616;2023-08-30T20:32:48;4.13;;;3.20;;
6862;SDS011;3470;48.738;9.616;2023-08-30T20:35:17;3.47;;;3.17;;
6862;SDS011;3470;48.738;9.616;2023-08-30T20:37:42;3.50;;;3.20;;
6862;SDS011;3470;48.738;9.616;2023-08-30T20:40:09;3.25;;;3.03;;
6862;SDS011;3470;48.738;9.616;2023-08-30T20:42:35;3.75;;;3.17;;
6862;SDS011;3470;48.738;9.616;2023-08-30T20:45:01;3.40;;;3.10;;
6862;SDS011;3470;48.738;9.616;2023-08-30T20:47:29;3.40;;;3.10;;
6862;SDS011;3470;48.738;9.616;2023-08-30T20:49:55;4.93;;;3.50;;
6862;SDS011;3470;48.738;9.616;2023-08-30T20:52:21;3.22;;;3.00;;
6862;SDS011;3470;48.738;9.616;2023-08-30T20:54:48;3.95;;;3.45;;
6862;SDS011;3470;48.738;9.616;2023-08-30T20:57:14;4.05;;;3.55;;
6862;SDS011;3470;48.738;9.616;2023-08-30T20:59:40;3.78;;;3.05;;
6862;SDS011;3470;48.738;9.616;2023-08-30T21:02:06;4.53;;;3.58;;
6862;SDS011;3470;48.738;9.616;2023-08-30T21:04:34;4.47;;;3.42;;
6862;SDS011;3470;48.738;9.616;2023-08-30T21:07:00;3.60;;;3.30;;
6862;SDS011;3470;48.738;9.616;2023-08-30T21:09:25;3.70;;;3.40;;
6862;SDS011;3470;48.738;9.616;2023-08-30T21:11:51;3.88;;;3.17;;
6862;SDS011;3470;48.738;9.616;2023-08-30T21:14:16;3.28;;;2.90;;
6862;SDS011;3470;48.738;9.616;2023-08-30T21:16:42;4.90;;;3.30;;
6862;SDS011;3470;48.738;9.616;2023-08-30T21:19:08;3.85;;;3.38;;
6862;SDS011;3470;48.738;9.616;2023-08-30T21:21:33;3.55;;;3.05;;
6862;SDS011;3470;48.738;9.616;2023-08-30T21:23:59;3.47;;;3.17;;
6862;SDS011;3470;48.738;9.616;2023-08-30T21:26:25;3.30;;;3.00;;
6862;SDS011;3470;48.738;9.616;2023-08-30T21:28:54;4.63;;;3.25;;
6862;SDS011;3470;48.738;9.616;2023-08-30T21:31:19;5.25;;;3.08;;